Latest Coastal Weather Observations for Hogan Island

IDT60701

Issued at 7:32 pm EST Wednesday 6 May 2026 (issued every 10 minutes, with the page automatically refreshed every 10 minutes)

About coastal observations | Map of coastal stations | Coastal observations for TAS | Marine services | Other Formats
Station Details ID: 200838 Name: HOGAN ISLAND Lat: -39.22 Lon: 146.98 Height: 116.0 m
Data from the previous 72 hours. | See also: Recent months at Hogan Island
Date/Time
EST
Wind Sea
Height
m
Swell Vis
km
Cloud Weather Temp
°C
Press
MSL
hPa
Rain since
9am
mm
Dir  Spd
kts
Gust
kts
Height
m
Period
s
Dir
06/07:30pm NW 25 32 - - - - - - - 13.5 1010.6 0.6
06/07:00pm WNW 28 33 - - - - - - - 13.2 1010.9 0.6
06/06:30pm WNW 31 35 - - - - - - - 12.8 1011.5 0.6
06/06:00pm NW 26 37 - - - - - - - 15.0 1011.2 0.0
06/05:42pm NW 24 34 - - - - - - - 14.9 1011.2 0.0
06/05:30pm NW 25 33 - - - - - - - 14.8 1011.2 0.0
06/05:26pm NW 23 33 - - - - - - - 14.8 1011.0 0.0
06/05:00pm NW 28 35 - - - - - - - 14.8 1011.1 0.0
06/04:43pm NW 26 36 - - - - - - - 15.0 1011.3 0.0
06/04:30pm NW 24 32 - - - - - - - 15.0 1011.5 0.0
06/04:10pm NW 22 32 - - - - - - - 15.1 1012.1 0.0
06/04:00pm NW 24 33 - - - - - - - 15.4 1012.3 0.0
06/03:32pm NW 25 35 - - - - - - - 14.9 1012.6 0.0
06/03:30pm NW 26 35 - - - - - - - 15.0 1012.5 0.0
06/03:28pm NW 25 35 - - - - - - - 14.8 1012.6 0.0
06/03:00pm NW 29 35 - - - - - - - 15.0 1012.7 0.0
06/02:30pm NW 30 36 - - - - - - - 14.8 1013.2 0.0
06/02:00pm NW 26 31 - - - - - - - 15.3 1013.7 0.0
06/01:30pm NW 26 31 - - - - - - - 14.7 1014.5 0.0
06/01:00pm NW 23 27 - - - - - - - 14.9 1014.9 0.0
06/12:30pm WNW 22 26 - - - - - - - 14.8 1015.5 0.0
06/12:00pm WNW 23 28 - - - - - - - 15.8 1016.0 0.0
06/11:30am NW 23 28 - - - - - - - 14.6 1016.4 0.0
06/11:00am NW 23 28 - - - - - - - 14.2 1016.9 0.0
06/10:30am NW 21 26 - - - - - - - 14.1 1017.5 0.0
06/10:00am NW 25 30 - - - - - - - 14.1 1017.5 0.0
06/09:30am NW 20 24 - - - - - - - 14.2 1017.9 0.0
06/09:00am NW 16 21 - - - - - - - 14.5 1018.2 0.0
06/08:30am NW 17 21 - - - - - - - 13.9 1018.5 0.0
06/08:00am NW 17 21 - - - - - - - 13.9 1018.5 0.0
06/07:30am NW 19 21 - - - - - - - 13.8 1018.4 0.0
06/07:00am WNW 18 22 - - - - - - - 13.9 1018.5 0.0
06/06:30am NW 17 21 - - - - - - - 13.8 1018.6 0.0
06/06:00am WNW 21 28 - - - - - - - 14.0 1018.4 0.0
06/05:30am WNW 22 29 - - - - - - - 14.1 1018.5 0.0
06/05:00am WNW 19 26 - - - - - - - 14.1 1018.4 0.0
06/04:30am WNW 23 28 - - - - - - - 14.3 1018.5 0.0
06/04:00am WNW 23 26 - - - - - - - 14.3 1018.6 0.0
06/03:30am W 25 28 - - - - - - - 14.2 1018.6 0.0
06/03:00am WNW 21 27 - - - - - - - 14.3 1019.2 0.0
06/02:30am WNW 20 24 - - - - - - - 14.2 1019.5 0.0
06/02:00am W 21 26 - - - - - - - 14.2 1019.6 0.0
06/01:30am W 23 27 - - - - - - - 14.0 1019.7 0.0
06/01:00am WNW 26 31 - - - - - - - 14.2 1019.7 0.0
06/12:30am WNW 24 29 - - - - - - - 14.2 1019.9 0.0
06/12:00am WNW 24 28 - - - - - - - 14.3 1019.8 0.0
 
Date/Time
EST
Wind Sea
Height
m
Swell Vis
km
Cloud Weather Temp
°C
Press
MSL
hPa
Rain since
9am
mm
Dir  Spd
kts
Gust
kts
Height
m
Period
s
Dir
05/11:30pm WNW 26 31 - - - - - - - 14.1 1019.8 0.0
05/11:00pm WNW 26 31 - - - - - - - 13.8 1019.8 0.0
05/10:30pm W 25 28 - - - - - - - 14.1 1020.0 0.0
05/10:00pm W 27 31 - - - - - - - 13.8 1019.9 0.0
05/09:30pm W 26 30 - - - - - - - 13.8 1020.1 0.0
05/09:00pm W 28 32 - - - - - - - 13.6 1019.9 0.0
05/08:30pm W 27 31 - - - - - - - 14.0 1020.0 0.0
05/08:00pm W 27 31 - - - - - - - 14.1 1020.0 0.0
05/07:30pm W 28 33 - - - - - - - 14.0 1019.8 0.0
05/07:00pm W 29 33 - - - - - - - 14.0 1019.8 0.0
05/06:30pm W 28 34 - - - - - - - 14.2 1019.7 0.0
05/06:00pm W 32 37 - - - - - - - 14.1 1018.8 0.0
05/05:30pm W 32 37 - - - - - - - 13.5 1018.5 0.0
05/05:00pm W 30 34 - - - - - - - 14.1 1018.3 0.0
05/04:30pm W 29 36 - - - - - - - 14.1 1018.1 0.0
05/04:00pm W 31 37 - - - - - - - 13.8 1017.9 0.0
05/03:30pm W 34 40 - - - - - - - 14.0 1017.3 0.0
05/03:00pm W 34 37 - - - - - - - 14.3 1017.0 0.0
05/02:30pm W 33 38 - - - - - - - 14.1 1016.4 0.0
05/02:00pm W 32 38 - - - - - - - 14.5 1016.1 0.0
05/01:30pm W 33 37 - - - - - - - 15.0 1015.9 0.0
05/01:00pm W 32 37 - - - - - - - 15.3 1016.0 0.0
05/12:30pm W 34 39 - - - - - - - 15.1 1015.9 0.0
05/12:00pm W 33 38 - - - - - - - 15.1 1016.0 0.0
05/11:30am W 31 35 - - - - - - - 14.9 1016.0 0.0
05/11:00am W 34 40 - - - - - - - 14.8 1015.7 0.0
05/10:30am WSW 35 42 - - - - - - - 13.6 1015.1 0.0
05/10:00am W 33 37 - - - - - - - 14.5 1014.8 0.0
05/09:30am W 34 41 - - - - - - - 14.1 1014.2 0.0
05/09:00am WSW 35 41 - - - - - - Recent precip. 13.7 1014.0 4.0
05/08:30am WSW 37 42 - - - - - - - 13.5 1013.6 4.0
05/08:00am W 38 44 - - - - - - - 13.6 1012.9 3.8
05/07:30am W 35 42 - - - - - - - 13.4 1012.0 3.8
05/07:00am W 39 44 - - - - - - - 13.9 1011.3 3.6
05/06:36am W 38 48 - - - - - - - 13.7 1010.8 3.6
05/06:30am W 39 43 - - - - - - - 14.1 1010.5 3.4
05/06:00am W 40 47 - - - - - - Recent precip. 13.7 1009.9 3.2
05/05:30am W 43 50 - - - - - - - 14.0 1009.3 3.2
05/05:10am W 41 51 - - - - - - - 14.0 1008.8 3.2
05/05:00am W 43 50 - - - - - - - 14.1 1008.5 3.0
05/04:30am W 44 55 - - - - - - - 13.9 1007.8 2.8
05/04:00am WNW 37 51 - - - - - - - 13.7 1007.4 2.6
05/03:32am NW 42 52 - - - - - - - 13.0 1006.5 0.2
05/03:30am NW 43 52 - - - - - - - 12.9 1006.5 0.2
05/03:01am NW 41 51 - - - - - - - 13.1 1007.0 0.0
05/03:00am NW 42 51 - - - - - - - 13.3 1007.0 0.0
05/02:33am NW 43 54 - - - - - - - 13.3 1006.7 0.0
05/02:30am NW 43 51 - - - - - - - 13.3 1007.0 0.0
05/02:00am NW 39 49 - - - - - - - 14.2 1007.2 0.0
05/01:30am NW 40 50 - - - - - - - 14.3 1007.7 0.0
05/01:15am NW 38 48 - - - - - - - 14.5 1007.8 0.0
05/01:00am NW 36 44 - - - - - - - 14.6 1008.3 0.0
05/12:48am NW 34 46 - - - - - - - 14.5 1008.2 0.0
05/12:30am NW 29 42 - - - - - - - 14.6 1008.8 0.0
05/12:11am NW 33 43 - - - - - - - 14.8 1008.9 0.0
05/12:00am NW 35 43 - - - - - - - 14.9 1008.7 0.0
 
Date/Time
EST
Wind Sea
Height
m
Swell Vis
km
Cloud Weather Temp
°C
Press
MSL
hPa
Rain since
9am
mm
Dir  Spd
kts
Gust
kts
Height
m
Period
s
Dir
04/11:30pm NW 33 48 - - - - - - - 15.3 1008.7 0.0
04/11:22pm NW 33 48 - - - - - - - 15.2 1008.6 0.0
04/11:05pm NW 27 37 - - - - - - - 15.4 1009.5 0.0
04/11:00pm NW 28 37 - - - - - - - 15.4 1009.4 0.0
04/10:57pm NW 27 37 - - - - - - - 15.4 1009.5 0.0
04/10:30pm NNW 31 36 - - - - - - - 15.5 1009.6 0.0
04/10:00pm NW 26 31 - - - - - - - 15.9 1010.0 0.0
04/09:30pm NNW 23 31 - - - - - - - 16.0 1009.9 0.0
04/09:20pm NNW 19 29 - - - - - - - 16.2 1010.0 0.0
04/09:00pm NNW 19 27 - - - - - - - 16.3 1009.9 0.0
04/08:49pm NNW 21 31 - - - - - - - 16.3 1009.9 0.0
04/08:30pm NNW 19 26 - - - - - - - 16.4 1009.8 0.0
04/08:00pm NNW 15 23 - - - - - - - 16.5 1009.8 0.0
04/07:30pm NNW 15 22 - - - - - - - 16.7 1009.8 0.0
04/07:00pm NNW 17 21 - - - - - - - 16.7 1009.7 0.0
04/06:30pm NNW 16 19 - - - - - - - 16.8 1009.6 0.0
04/06:00pm NNW 11 15 - - - - - - - 16.3 1009.5 0.0
04/05:30pm NNW 12 14 - - - - - - - 16.1 1009.4 0.0
04/05:00pm NW 15 18 - - - - - - - 16.1 1009.2 0.0
04/04:30pm NNW 15 19 - - - - - - - 16.7 1009.1 0.0
04/04:00pm NNW 11 17 - - - - - - - 16.8 1009.1 0.0
04/03:30pm N 15 18 - - - - - - - 17.3 1009.0 0.0
04/03:00pm N 15 19 - - - - - - - 17.9 1009.1 0.0
04/02:30pm N 16 21 - - - - - - - 18.0 1009.0 0.0
04/02:00pm NNE 15 19 - - - - - - - 18.0 1009.3 0.0
04/01:30pm NNE 15 19 - - - - - - - 18.3 1009.6 0.0
04/01:00pm N 16 21 - - - - - - - 18.4 1009.8 0.0
04/12:30pm N 16 20 - - - - - - - 18.0 1010.2 0.0
04/12:00pm N 17 21 - - - - - - - 17.2 1010.9 0.0
04/11:30am N 17 22 - - - - - - - 17.1 1011.4 0.0
04/11:00am N 17 20 - - - - - - - 17.3 1011.6 0.0
04/10:30am N 15 19 - - - - - - - 17.1 1011.7 0.0
04/10:00am N 15 19 - - - - - - - 16.4 1011.8 0.0
04/09:30am N 12 16 - - - - - - - 16.3 1012.0 0.0
04/09:00am NNW 10 15 - - - - - - - 16.0 1012.3 17.8
04/08:30am N 11 15 - - - - - - - 15.6 1012.3 17.8
04/08:00am N 11 13 - - - - - - - 14.9 1012.2 17.8
04/07:30am N 12 14 - - - - - - - 14.4 1011.6 17.8
04/07:00am N 9 11 - - - - - - - 13.6 1011.3 17.8
04/06:30am NNW 11 15 - - - - - - - 14.4 1011.6 17.8
04/06:00am NW 13 18 - - - - - - - 14.6 1011.4 17.8
04/05:30am NW 13 16 - - - - - - - 14.6 1011.3 17.8
04/05:00am NW 17 20 - - - - - - - 14.9 1011.3 17.8
04/04:30am NW 16 19 - - - - - - - 14.8 1011.2 17.8
04/04:00am NW 19 21 - - - - - - - 14.8 1011.0 17.8
04/03:30am NW 18 21 - - - - - - - 15.0 1011.2 17.8
04/03:00am WNW 19 22 - - - - - - - 15.0 1011.3 17.8
04/02:30am WNW 21 23 - - - - - - - 15.0 1011.4 17.8
04/02:00am NW 16 21 - - - - - - - 15.1 1011.8 17.8
04/01:30am NW 16 21 - - - - - - - 14.9 1012.2 17.8
04/01:00am NW 13 17 - - - - - - - 15.0 1012.0 17.8
04/12:30am NW 15 18 - - - - - - - 15.1 1012.4 17.8
04/12:00am NW 14 19 - - - - - - - 15.1 1012.4 17.8
 
Date/Time
EST
Wind Sea
Height
m
Swell Vis
km
Cloud Weather Temp
°C
Press
MSL
hPa
Rain since
9am
mm
Dir  Spd
kts
Gust
kts
Height
m
Period
s
Dir
03/11:30pm NNW 9 11 - - - - - - - 14.9 1012.1 17.8
03/11:00pm NW 8 9 - - - - - - - 14.5 1012.0 17.8
03/10:30pm N 5 6 - - - - - - - 14.6 1012.4 17.8
03/10:00pm NW 10 13 - - - - - - - 14.3 1012.5 17.8
03/09:30pm NW 10 13 - - - - - - - 14.1 1012.3 17.8
03/09:00pm N 7 9 - - - - - - Recent precip. 13.1 1012.1 17.8
03/08:30pm NNW 13 20 - - - - - - - 13.6 1012.0 17.6
03/08:00pm WNW 16 19 - - - - - - - 14.4 1011.8 13.8

Other formats

Comma delimited format used in spreadsheet applications
http://www.bom.gov.au/fwo/IDT60701/IDT60701.94949.axf

JavaScript Object Notation format (JSON) in row-major order
http://www.bom.gov.au/fwo/IDT60701/IDT60701.94949.json

Data quality

Most of these data are generated automatically and are frequently updated. Quality checks on data are not normally performed. It is possible for incorrect values to appear. Refer to information at About Latest Weather Observations and please check the disclaimer before using these data.